createdAt,value
2018-03-24T00:01:39.295Z,16.23
2018-03-24T00:04:07.566Z,23.03
2018-03-24T00:06:35.848Z,18.93
2018-03-24T00:09:04.116Z,15.37
2018-03-24T00:11:32.377Z,16.77
2018-03-24T00:14:00.676Z,19.60
2018-03-24T00:16:28.944Z,17.07
2018-03-24T00:18:57.219Z,16.17
2018-03-24T00:21:25.488Z,14.07
2018-03-24T00:23:53.762Z,17.13
2018-03-24T00:26:22.036Z,19.00
2018-03-24T00:28:50.324Z,17.50
2018-03-24T00:31:18.592Z,15.50
2018-03-24T00:33:46.864Z,19.93
2018-03-24T00:36:15.151Z,16.33
2018-03-24T00:38:43.418Z,16.87
2018-03-24T00:41:11.700Z,18.57
2018-03-24T00:43:39.964Z,15.60
2018-03-24T00:46:08.240Z,14.07
2018-03-24T00:48:36.511Z,22.60
2018-03-24T00:51:05.723Z,19.97
2018-03-24T00:53:33.992Z,17.20
2018-03-24T00:56:02.281Z,17.63
2018-03-24T00:58:30.549Z,16.23
2018-03-24T01:00:58.820Z,12.90
2018-03-24T01:03:27.092Z,11.13
2018-03-24T01:05:55.364Z,16.77
2018-03-24T01:08:23.644Z,20.97
2018-03-24T01:10:51.924Z,18.27
2018-03-24T01:13:20.229Z,23.03
2018-03-24T01:15:48.503Z,15.60
2018-03-24T01:18:16.764Z,18.90
2018-03-24T01:20:45.043Z,19.90
2018-03-24T01:23:13.332Z,20.57
2018-03-24T01:25:41.620Z,20.10
2018-03-24T01:28:10.186Z,18.73
2018-03-24T01:30:38.452Z,20.03
2018-03-24T01:33:06.774Z,19.80
2018-03-24T01:35:35.043Z,19.23
2018-03-24T01:38:03.343Z,21.83
2018-03-24T01:40:31.635Z,19.60
2018-03-24T01:42:59.911Z,18.03
2018-03-24T01:45:28.184Z,19.27
2018-03-24T01:47:56.477Z,19.27
2018-03-24T01:50:24.739Z,17.03
2018-03-24T01:52:53.029Z,22.37
2018-03-24T01:55:21.295Z,20.97
2018-03-24T01:57:49.580Z,15.70
2018-03-24T02:00:17.846Z,18.30
2018-03-24T02:02:46.119Z,20.60
2018-03-24T02:05:14.404Z,21.47
2018-03-24T02:07:42.676Z,21.60
2018-03-24T02:10:10.960Z,24.87
2018-03-24T02:12:39.244Z,24.27
2018-03-24T02:15:07.524Z,22.73
2018-03-24T02:17:35.798Z,24.60
2018-03-24T02:20:04.072Z,20.97
2018-03-24T02:22:32.350Z,21.07
2018-03-24T02:25:13.379Z,20.43
2018-03-24T02:27:41.651Z,21.33
2018-03-24T02:30:09.941Z,22.93
2018-03-24T02:32:38.222Z,20.67
2018-03-24T02:35:06.483Z,22.17
2018-03-24T02:37:34.768Z,21.73
2018-03-24T02:40:03.039Z,23.60
2018-03-24T02:42:31.320Z,24.80
2018-03-24T02:44:59.601Z,25.37
2018-03-24T02:47:27.880Z,27.40
2018-03-24T02:49:56.152Z,23.53
2018-03-24T02:52:24.437Z,26.23
2018-03-24T02:54:52.717Z,27.13
2018-03-24T02:57:20.983Z,17.17
2018-03-24T02:59:49.257Z,19.90
2018-03-24T03:02:17.533Z,28.70
2018-03-24T03:04:45.819Z,26.80
2018-03-24T03:07:14.092Z,21.40
2018-03-24T03:09:42.371Z,33.43
2018-03-24T03:12:10.644Z,33.40
2018-03-24T03:14:38.936Z,26.07
2018-03-24T03:17:07.208Z,22.90
2018-03-24T03:19:35.484Z,27.00
2018-03-24T03:22:03.768Z,30.40
2018-03-24T03:24:32.040Z,25.93
2018-03-24T03:27:00.323Z,30.13
2018-03-24T03:29:28.596Z,23.20
2018-03-24T03:32:01.883Z,26.63
2018-03-24T03:34:30.160Z,23.20
2018-03-24T03:37:03.004Z,19.53
2018-03-24T03:39:31.280Z,21.37
2018-03-24T03:41:59.560Z,22.20
2018-03-24T03:44:27.840Z,21.40
2018-03-24T03:46:56.116Z,30.03
2018-03-24T03:49:24.392Z,21.63
2018-03-24T03:51:52.668Z,22.10
2018-03-24T03:54:20.947Z,21.30
2018-03-24T03:56:49.227Z,19.10
2018-03-24T03:59:17.511Z,20.87
2018-03-24T04:01:45.780Z,26.93
2018-03-24T04:04:14.051Z,22.60
2018-03-24T04:06:42.324Z,16.37
2018-03-24T04:09:10.591Z,20.73
2018-03-24T04:11:38.876Z,21.83
2018-03-24T04:14:07.156Z,19.77
2018-03-24T04:16:35.440Z,20.77
2018-03-24T04:19:03.708Z,17.23
2018-03-24T04:21:31.972Z,21.00
2018-03-24T04:24:00.260Z,19.70
2018-03-24T04:26:28.542Z,21.00
2018-03-24T04:28:56.820Z,19.63
2018-03-24T04:31:25.096Z,21.00
2018-03-24T04:33:53.372Z,16.17
2018-03-24T04:36:21.645Z,16.90
2018-03-24T04:38:49.931Z,14.73
2018-03-24T04:41:18.208Z,21.33
2018-03-24T04:43:46.468Z,27.17
2018-03-24T04:46:14.820Z,26.63
2018-03-24T04:48:43.093Z,17.70
2018-03-24T04:51:11.363Z,18.23
2018-03-24T04:53:39.640Z,24.97
2018-03-24T04:56:07.935Z,19.67
2018-03-24T04:58:36.200Z,22.27
2018-03-24T05:01:04.472Z,23.13
2018-03-24T05:03:32.768Z,21.40
2018-03-24T05:06:01.031Z,24.97
2018-03-24T05:08:29.320Z,24.27
2018-03-24T05:10:57.595Z,27.60
2018-03-24T05:13:25.888Z,24.23
2018-03-24T05:15:54.161Z,25.67
2018-03-24T05:18:22.432Z,26.00
2018-03-24T05:20:50.720Z,23.20
2018-03-24T05:23:18.997Z,27.50
2018-03-24T05:25:47.280Z,24.97
2018-03-24T05:28:15.556Z,22.57
2018-03-24T05:30:43.844Z,28.07
2018-03-24T05:33:12.134Z,33.60
2018-03-24T05:35:40.408Z,26.27
2018-03-24T05:38:08.685Z,26.83
2018-03-24T05:40:36.958Z,25.63
2018-03-24T05:43:05.247Z,30.10
2018-03-24T05:45:33.520Z,25.53
2018-03-24T05:48:01.814Z,23.57
2018-03-24T05:50:30.091Z,21.70
2018-03-24T05:52:58.375Z,19.63
2018-03-24T05:55:27.513Z,23.27
2018-03-24T05:57:55.796Z,19.10
2018-03-24T06:00:24.087Z,20.30
2018-03-24T06:02:52.362Z,19.70
2018-03-24T06:05:20.640Z,27.93
2018-03-24T06:07:48.909Z,24.43
2018-03-24T06:10:17.195Z,19.83
2018-03-24T06:12:45.464Z,27.03
2018-03-24T06:15:13.747Z,26.90
2018-03-24T06:17:42.012Z,25.30
2018-03-24T06:20:10.310Z,25.00
2018-03-24T06:22:38.580Z,25.87
2018-03-24T06:25:06.848Z,24.90
2018-03-24T06:27:35.141Z,21.00
2018-03-24T06:30:03.918Z,26.47
2018-03-24T06:32:32.212Z,29.93
2018-03-24T06:35:00.475Z,25.77
2018-03-24T06:37:28.760Z,37.77
2018-03-24T06:39:57.028Z,33.40
2018-03-24T06:42:25.316Z,32.63
2018-03-24T06:44:53.626Z,28.73
2018-03-24T06:47:21.860Z,30.23
2018-03-24T06:49:50.152Z,26.10
2018-03-24T06:52:18.438Z,24.90
2018-03-24T06:54:46.707Z,24.60
2018-03-24T06:57:14.980Z,28.17
2018-03-24T06:59:43.269Z,29.30
2018-03-24T07:02:11.545Z,29.13
2018-03-24T07:04:39.833Z,29.00
2018-03-24T07:07:08.120Z,30.13
2018-03-24T07:09:36.392Z,28.17
2018-03-24T07:12:04.675Z,30.07
2018-03-24T07:14:32.944Z,30.23
2018-03-24T07:17:01.246Z,29.73
2018-03-24T07:19:29.528Z,27.90
2018-03-24T07:21:57.825Z,26.53
2018-03-24T07:24:26.121Z,29.33
2018-03-24T07:26:54.399Z,24.20
2018-03-24T07:29:22.694Z,26.47
2018-03-24T07:31:50.991Z,31.73
2018-03-24T07:34:19.272Z,27.70
2018-03-24T07:36:47.585Z,30.37
2018-03-24T07:39:15.853Z,32.10
2018-03-24T07:41:44.133Z,33.67
2018-03-24T07:44:12.428Z,31.27
2018-03-24T07:46:40.710Z,30.53
2018-03-24T07:49:09.094Z,28.07
2018-03-24T07:51:38.107Z,30.73
2018-03-24T07:54:06.564Z,28.87
2018-03-24T07:56:34.867Z,30.97
2018-03-24T07:59:03.147Z,30.33
2018-03-24T08:01:31.453Z,36.10
2018-03-24T08:03:59.752Z,33.47
2018-03-24T08:06:28.032Z,32.70
2018-03-24T08:08:56.308Z,30.90
2018-03-24T08:11:24.580Z,28.67
2018-03-24T08:13:52.877Z,31.47
2018-03-24T08:16:21.153Z,31.53
2018-03-24T08:18:49.446Z,29.17
2018-03-24T08:21:17.741Z,33.13
2018-03-24T08:23:46.097Z,28.93
2018-03-24T08:26:14.374Z,28.23
2018-03-24T08:28:42.656Z,30.87
2018-03-24T08:31:10.961Z,29.77
2018-03-24T08:33:39.248Z,26.97
2018-03-24T08:36:07.536Z,25.83
2018-03-24T08:38:35.822Z,29.50
2018-03-24T08:41:04.123Z,26.97
2018-03-24T08:43:32.401Z,26.97
2018-03-24T08:46:00.704Z,30.17
2018-03-24T08:48:28.972Z,28.07
2018-03-24T08:50:57.258Z,27.83
2018-03-24T08:53:25.544Z,27.00
2018-03-24T08:55:53.830Z,26.40
2018-03-24T08:58:22.107Z,26.20
2018-03-24T09:00:50.396Z,27.00
2018-03-24T09:03:18.724Z,22.93
2018-03-24T09:05:46.996Z,23.23
2018-03-24T09:08:15.272Z,22.43
2018-03-24T09:10:43.565Z,24.73
2018-03-24T09:13:11.876Z,26.03
2018-03-24T09:15:57.304Z,28.50
2018-03-24T09:18:25.579Z,22.47
2018-03-24T09:20:53.868Z,26.67
2018-03-24T09:23:22.163Z,25.60
2018-03-24T09:25:50.428Z,25.10
2018-03-24T09:28:18.708Z,24.27
2018-03-24T09:30:47.000Z,23.87
2018-03-24T09:33:15.281Z,25.00
2018-03-24T09:35:43.587Z,22.10
2018-03-24T09:38:11.861Z,27.00
2018-03-24T09:40:40.145Z,25.90
2018-03-24T09:43:08.442Z,23.40
2018-03-24T09:45:36.745Z,19.93
2018-03-24T09:48:05.037Z,23.03
2018-03-24T09:53:27.321Z,22.10
2018-03-24T09:55:55.610Z,21.27
2018-03-24T09:58:23.894Z,21.77
2018-03-24T10:00:52.196Z,24.37
2018-03-24T10:03:20.516Z,23.43
2018-03-24T10:05:48.806Z,22.93
2018-03-24T10:08:17.086Z,22.73
2018-03-24T10:10:45.372Z,23.80
2018-03-24T10:13:13.653Z,21.07
2018-03-24T10:15:55.601Z,22.07
2018-03-24T10:18:29.188Z,21.33
2018-03-24T10:21:00.107Z,24.87
2018-03-24T10:26:56.328Z,21.97
2018-03-24T10:29:24.600Z,20.87
2018-03-24T10:32:02.661Z,20.97
2018-03-24T10:34:31.848Z,19.63
2018-03-24T10:37:00.160Z,21.50
2018-03-24T10:39:28.462Z,20.47
2018-03-24T10:41:56.790Z,16.23
2018-03-24T10:44:25.081Z,19.93
2018-03-24T10:46:53.412Z,18.60
2018-03-24T10:49:21.706Z,19.23
2018-03-24T10:51:56.453Z,20.80
2018-03-24T10:54:24.758Z,18.23
2018-03-24T10:57:02.813Z,17.80
2018-03-24T10:59:31.120Z,21.20
2018-03-24T11:02:03.524Z,16.70
2018-03-24T11:04:32.464Z,16.93
2018-03-24T11:07:01.458Z,17.73
2018-03-24T11:09:29.747Z,18.67
2018-03-24T11:11:58.047Z,19.63
2018-03-24T11:14:26.305Z,15.87
2018-03-24T11:16:54.611Z,16.77
2018-03-24T11:19:22.889Z,14.30
2018-03-24T11:21:51.172Z,15.20
2018-03-24T11:24:19.452Z,17.23
2018-03-24T11:26:47.740Z,18.40
2018-03-24T11:29:16.008Z,15.20
2018-03-24T11:31:44.309Z,17.70
2018-03-24T11:34:12.570Z,15.00
2018-03-24T11:36:40.844Z,13.33
2018-03-24T11:39:09.158Z,16.13
2018-03-24T11:41:37.432Z,15.87
2018-03-24T11:44:05.715Z,15.33
2018-03-24T11:46:33.996Z,13.83
2018-03-24T11:49:02.281Z,15.23
2018-03-24T11:51:30.544Z,12.17
2018-03-24T11:53:58.836Z,15.83
2018-03-24T11:56:27.112Z,11.90
2018-03-24T11:58:55.408Z,13.43
2018-03-24T12:01:25.639Z,13.60
2018-03-24T12:03:53.904Z,14.97
2018-03-24T12:06:22.189Z,13.27
2018-03-24T12:08:50.456Z,13.57
2018-03-24T12:11:18.737Z,11.70
2018-03-24T12:13:47.007Z,13.77
2018-03-24T12:16:15.296Z,13.37
2018-03-24T12:18:43.572Z,13.70
2018-03-24T12:21:11.844Z,13.73
2018-03-24T12:23:40.129Z,15.13
2018-03-24T12:26:08.402Z,14.43
2018-03-24T12:28:36.687Z,14.40
2018-03-24T12:31:04.952Z,14.37
2018-03-24T12:33:33.236Z,13.63
2018-03-24T12:36:01.510Z,14.30
2018-03-24T12:38:29.792Z,13.60
2018-03-24T12:40:58.056Z,12.77
2018-03-24T12:43:26.336Z,10.37
2018-03-24T12:45:54.620Z,12.33
2018-03-24T12:48:22.893Z,12.70
2018-03-24T12:50:51.193Z,14.53
2018-03-24T12:53:19.466Z,14.60
2018-03-24T12:55:47.740Z,14.90
2018-03-24T12:58:16.014Z,13.13
2018-03-24T13:00:44.296Z,13.03
2018-03-24T13:03:12.565Z,14.30
2018-03-24T13:05:40.838Z,14.43
2018-03-24T13:08:09.116Z,12.57
2018-03-24T13:10:37.414Z,14.20
2018-03-24T13:13:05.692Z,13.93
2018-03-24T13:15:33.959Z,15.27
2018-03-24T13:18:02.297Z,14.07
2018-03-24T13:20:30.568Z,13.93
2018-03-24T13:22:58.835Z,13.27
2018-03-24T13:25:27.112Z,14.07
2018-03-24T13:27:55.381Z,14.70
2018-03-24T13:30:23.669Z,12.37
2018-03-24T13:32:51.936Z,13.87
2018-03-24T13:35:20.220Z,12.77
2018-03-24T13:37:48.497Z,14.10
2018-03-24T13:40:16.793Z,15.30
2018-03-24T13:42:45.079Z,13.97
2018-03-24T13:45:13.343Z,13.23
2018-03-24T13:47:41.627Z,12.97
2018-03-24T13:50:09.900Z,12.17
2018-03-24T13:52:38.180Z,12.80
2018-03-24T13:55:06.452Z,12.57
2018-03-24T13:57:34.737Z,12.87
2018-03-24T14:00:02.999Z,11.07
2018-03-24T14:02:31.296Z,15.20
2018-03-24T14:04:59.569Z,13.37
2018-03-24T14:07:27.836Z,13.03
2018-03-24T14:09:56.116Z,13.20
2018-03-24T14:12:24.391Z,14.93
2018-03-24T14:14:52.664Z,12.70
2018-03-24T14:17:20.932Z,12.10
2018-03-24T14:19:49.216Z,12.77
2018-03-24T14:22:17.492Z,12.90
2018-03-24T14:24:45.773Z,10.87
2018-03-24T14:27:14.073Z,11.20
2018-03-24T14:29:42.356Z,14.23
2018-03-24T14:32:10.631Z,13.23
2018-03-24T14:34:38.900Z,13.07
2018-03-24T14:37:07.180Z,14.03
2018-03-24T14:39:35.460Z,12.67
2018-03-24T14:42:03.744Z,13.90
2018-03-24T14:44:32.024Z,13.67
2018-03-24T14:47:00.299Z,14.50
2018-03-24T14:49:28.564Z,11.40
2018-03-24T14:51:56.843Z,11.27
2018-03-24T14:54:25.164Z,11.20
2018-03-24T14:56:53.380Z,12.27
2018-03-24T14:59:21.660Z,11.57
2018-03-24T15:01:49.929Z,10.40
2018-03-24T15:04:18.217Z,11.87
2018-03-24T15:06:46.488Z,12.43
2018-03-24T15:09:14.776Z,11.97
2018-03-24T15:11:43.052Z,11.47
2018-03-24T15:14:11.337Z,11.43
2018-03-24T15:16:39.604Z,14.27
2018-03-24T15:19:07.879Z,11.97
2018-03-24T15:21:36.774Z,11.70
2018-03-24T15:24:05.013Z,9.60
2018-03-24T15:26:33.296Z,12.93
2018-03-24T15:29:13.395Z,11.23
2018-03-24T15:31:53.499Z,9.77
2018-03-24T15:34:33.446Z,11.53
2018-03-24T15:37:01.732Z,12.77
2018-03-24T15:39:30.005Z,13.40
2018-03-24T15:41:58.283Z,20.17
2018-03-24T15:44:26.563Z,13.37
2018-03-24T15:46:54.832Z,11.77
2018-03-24T15:49:23.128Z,15.23
2018-03-24T15:51:51.404Z,13.47
2018-03-24T15:54:19.732Z,14.10
2018-03-24T15:56:47.956Z,11.97
2018-03-24T15:59:16.238Z,12.60
2018-03-24T16:01:44.536Z,13.73
2018-03-24T16:04:12.787Z,13.13
2018-03-24T16:06:41.052Z,13.10
2018-03-24T16:09:09.320Z,12.73
2018-03-24T16:11:38.333Z,11.90
2018-03-24T16:14:10.015Z,13.13
2018-03-24T16:16:38.303Z,13.37
2018-03-24T16:19:06.611Z,13.80
2018-03-24T16:21:34.894Z,13.97
2018-03-24T16:24:03.172Z,12.43
2018-03-24T16:26:31.464Z,11.77
2018-03-24T16:28:59.741Z,13.03
2018-03-24T16:31:28.012Z,15.73
2018-03-24T16:33:56.309Z,13.73
2018-03-24T16:36:24.587Z,12.93
2018-03-24T16:38:52.881Z,13.13
2018-03-24T16:41:21.143Z,16.80
2018-03-24T16:43:49.425Z,15.80
2018-03-24T16:46:17.700Z,13.70
2018-03-24T16:48:47.002Z,10.13
2018-03-24T16:51:15.280Z,15.30
2018-03-24T16:53:43.583Z,14.00
2018-03-24T16:56:11.888Z,11.83
2018-03-24T16:58:40.164Z,12.27
2018-03-24T17:01:10.386Z,12.13
2018-03-24T17:03:41.907Z,13.33
2018-03-24T17:06:10.187Z,14.07
2018-03-24T17:08:38.461Z,12.50
2018-03-24T17:11:06.766Z,12.93
2018-03-24T17:13:35.038Z,14.23
2018-03-24T17:16:03.305Z,11.80
2018-03-24T17:18:31.592Z,12.00
2018-03-24T17:20:59.896Z,16.23
2018-03-24T17:23:28.174Z,19.30
2018-03-24T17:25:56.448Z,12.17
2018-03-24T17:28:24.724Z,13.80
2018-03-24T17:30:52.996Z,13.93
2018-03-24T17:33:21.280Z,14.50
2018-03-24T17:35:49.551Z,15.20
2018-03-24T17:38:17.837Z,13.23
2018-03-24T17:40:46.168Z,15.17
2018-03-24T17:43:14.445Z,14.87
2018-03-24T17:45:42.728Z,15.23
2018-03-24T17:48:11.013Z,13.37
2018-03-24T17:50:39.303Z,12.13
2018-03-24T17:53:07.581Z,14.27
2018-03-24T17:55:35.851Z,11.47
2018-03-24T17:58:04.150Z,14.17
2018-03-24T18:00:32.434Z,15.47
2018-03-24T18:03:00.704Z,14.17
2018-03-24T18:05:28.979Z,14.17
2018-03-24T18:07:57.296Z,12.87
2018-03-24T18:10:25.572Z,13.43
2018-03-24T18:12:53.860Z,12.47
2018-03-24T18:15:22.128Z,13.70
2018-03-24T18:17:50.414Z,16.37
2018-03-24T18:20:18.696Z,12.63
2018-03-24T18:22:46.972Z,14.33
2018-03-24T18:25:15.263Z,16.13
2018-03-24T18:27:43.528Z,12.20
2018-03-24T18:30:11.812Z,14.37
2018-03-24T18:32:40.096Z,16.73
2018-03-24T18:35:08.409Z,15.37
2018-03-24T18:37:36.665Z,15.67
2018-03-24T18:40:04.929Z,15.07
2018-03-24T18:42:33.216Z,14.10
2018-03-24T18:45:01.478Z,16.53
2018-03-24T18:47:29.753Z,15.93
2018-03-24T18:50:04.284Z,16.43
2018-03-24T18:52:49.908Z,19.67
2018-03-24T18:55:18.189Z,19.40
2018-03-24T18:57:46.479Z,19.43
2018-03-24T19:00:17.954Z,15.30
2018-03-24T19:02:46.201Z,22.93
2018-03-24T19:05:14.472Z,16.97
2018-03-24T19:07:42.760Z,17.10
2018-03-24T19:10:11.044Z,16.77
2018-03-24T19:12:39.322Z,16.30
2018-03-24T19:15:07.612Z,20.43
2018-03-24T19:17:35.888Z,17.90
2018-03-24T19:20:04.187Z,20.07
2018-03-24T19:22:32.450Z,15.63
2018-03-24T19:25:00.756Z,18.03
2018-03-24T19:27:30.766Z,14.80
2018-03-24T19:29:59.292Z,15.43
2018-03-24T19:32:27.592Z,17.73
2018-03-24T19:34:55.887Z,18.33
2018-03-24T19:37:24.163Z,15.90
2018-03-24T19:39:52.436Z,13.63
2018-03-24T19:42:20.716Z,15.03
2018-03-24T19:44:48.988Z,17.93
2018-03-24T19:47:17.282Z,16.07
2018-03-24T19:49:45.562Z,18.63
2018-03-24T19:52:13.840Z,15.67
2018-03-24T19:54:42.140Z,15.23
2018-03-24T19:57:10.415Z,16.87
2018-03-24T19:59:38.703Z,18.20
2018-03-24T20:02:06.964Z,17.23
2018-03-24T20:04:35.244Z,14.40
2018-03-24T20:07:03.517Z,16.90
2018-03-24T20:09:31.793Z,16.53
2018-03-24T20:12:00.067Z,15.47
2018-03-24T20:14:28.351Z,16.03
2018-03-24T20:16:56.620Z,15.03
2018-03-24T20:19:24.893Z,18.77
2018-03-24T20:21:53.169Z,17.23
2018-03-24T20:24:21.432Z,17.13
2018-03-24T20:26:49.717Z,21.30
2018-03-24T20:29:17.987Z,15.43
2018-03-24T20:31:46.260Z,16.10
2018-03-24T20:34:14.520Z,17.97
2018-03-24T20:36:42.819Z,18.97
2018-03-24T20:39:11.092Z,21.20
2018-03-24T20:41:39.367Z,16.80
2018-03-24T20:44:07.645Z,16.70
2018-03-24T20:46:35.916Z,17.53
2018-03-24T20:49:04.196Z,20.47
2018-03-24T20:51:32.468Z,18.73
2018-03-24T20:54:00.748Z,17.50
2018-03-24T20:56:29.025Z,18.47
2018-03-24T20:58:57.312Z,19.73
2018-03-24T21:01:25.629Z,23.97
2018-03-24T21:03:53.864Z,21.53
2018-03-24T21:06:22.149Z,20.67
2018-03-24T21:08:50.420Z,23.23
2018-03-24T21:11:18.708Z,21.43
2018-03-24T21:13:46.977Z,23.43
2018-03-24T21:16:15.270Z,21.73
2018-03-24T21:18:43.528Z,22.43
2018-03-24T21:21:11.823Z,23.50
2018-03-24T21:23:40.112Z,21.10
2018-03-24T21:26:08.376Z,22.47
2018-03-24T21:28:36.652Z,22.43
2018-03-24T21:31:04.929Z,17.63
2018-03-24T21:33:33.201Z,21.47
2018-03-24T21:36:01.467Z,26.73
2018-03-24T21:38:29.768Z,21.13
2018-03-24T21:40:58.053Z,20.27
2018-03-24T21:43:26.355Z,20.03
2018-03-24T21:45:54.630Z,18.70
2018-03-24T21:48:22.901Z,22.10
2018-03-24T21:50:51.184Z,22.23
2018-03-24T21:53:19.447Z,19.03
2018-03-24T21:55:47.728Z,22.67
2018-03-24T21:58:16.000Z,21.90
2018-03-24T22:00:44.287Z,19.33
2018-03-24T22:03:12.564Z,22.27
2018-03-24T22:05:40.848Z,21.63
2018-03-24T22:08:09.119Z,19.87
2018-03-24T22:10:37.410Z,21.73
2018-03-24T22:13:05.680Z,19.13
2018-03-24T22:15:33.954Z,17.60
2018-03-24T22:18:02.248Z,18.73
2018-03-24T22:20:30.515Z,18.03
2018-03-24T22:22:58.807Z,17.63
2018-03-24T22:25:27.171Z,17.23
2018-03-24T22:27:55.457Z,19.10
2018-03-24T22:30:23.715Z,20.37
2018-03-24T22:32:52.955Z,19.10
2018-03-24T22:35:21.216Z,18.30
2018-03-24T22:37:49.492Z,18.73
2018-03-24T22:40:17.776Z,19.67
2018-03-24T22:42:46.043Z,23.80
2018-03-24T22:45:14.402Z,20.90
2018-03-24T22:47:42.603Z,20.63
2018-03-24T22:50:10.885Z,17.53
2018-03-24T22:52:39.148Z,20.67
2018-03-24T22:55:07.430Z,15.80
2018-03-24T22:57:35.696Z,25.30
2018-03-24T23:00:03.965Z,19.27
2018-03-24T23:02:32.247Z,18.67
2018-03-24T23:05:00.524Z,20.77
2018-03-24T23:07:28.812Z,18.20
2018-03-24T23:09:57.080Z,18.83
2018-03-24T23:12:25.371Z,17.60
2018-03-24T23:14:53.702Z,16.73
2018-03-24T23:17:21.916Z,17.87
2018-03-24T23:19:50.192Z,17.57
2018-03-24T23:22:18.464Z,18.70
2018-03-24T23:24:46.745Z,15.20
2018-03-24T23:27:15.004Z,19.20
2018-03-24T23:29:43.292Z,19.70
2018-03-24T23:32:11.563Z,22.43
2018-03-24T23:34:39.848Z,17.40
2018-03-24T23:37:08.112Z,19.10
2018-03-24T23:39:39.850Z,22.97
2018-03-24T23:42:08.111Z,25.03
2018-03-24T23:44:36.387Z,22.67
2018-03-24T23:47:04.663Z,21.17
2018-03-24T23:49:32.931Z,18.30
2018-03-24T23:52:01.217Z,23.73
2018-03-24T23:54:29.499Z,21.07
2018-03-24T23:56:57.784Z,21.37
2018-03-24T23:59:26.061Z,21.40
